createdAt,value
2022-10-02T00:02:14.506Z,14.77
2022-10-02T00:04:46.091Z,18.63
2022-10-02T00:07:16.821Z,13.07
2022-10-02T00:09:47.871Z,15.57
2022-10-02T00:12:17.118Z,13.80
2022-10-02T00:14:46.818Z,19.17
2022-10-02T00:17:18.754Z,18.03
2022-10-02T00:19:47.198Z,14.00
2022-10-02T00:22:25.334Z,15.90
2022-10-02T00:24:58.840Z,19.23
2022-10-02T00:27:32.302Z,20.13
2022-10-02T00:30:02.630Z,18.40
2022-10-02T00:32:33.505Z,19.30
2022-10-02T00:35:25.424Z,15.20
2022-10-02T00:37:58.934Z,17.77
2022-10-02T00:40:42.263Z,19.17
2022-10-02T00:43:19.316Z,19.10
2022-10-02T00:45:56.117Z,18.47
2022-10-02T00:48:42.540Z,15.43
2022-10-02T00:51:16.502Z,16.23
2022-10-02T00:53:51.407Z,17.20
2022-10-02T00:56:25.162Z,19.33
2022-10-02T00:59:08.403Z,16.37
2022-10-02T01:01:41.546Z,19.97
2022-10-02T01:04:12.939Z,14.60
2022-10-02T01:06:41.371Z,21.63
2022-10-02T01:09:11.880Z,20.03
2022-10-02T01:11:40.289Z,26.40
2022-10-02T01:14:08.750Z,18.73
2022-10-02T01:16:37.673Z,15.33
2022-10-02T01:19:06.994Z,18.43
2022-10-02T01:21:39.921Z,21.17
2022-10-02T01:24:11.308Z,18.93
2022-10-02T01:26:41.295Z,17.87
2022-10-02T01:29:09.820Z,18.53
2022-10-02T01:31:38.433Z,23.40
2022-10-02T01:34:07.179Z,17.97
2022-10-02T01:36:36.085Z,20.80
2022-10-02T01:39:04.877Z,16.13
2022-10-02T01:41:42.863Z,18.67
2022-10-02T01:44:13.868Z,16.93
2022-10-02T01:46:47.819Z,13.57
2022-10-02T01:49:31.208Z,16.30
2022-10-02T01:52:16.434Z,15.60
2022-10-02T01:54:49.663Z,15.90
2022-10-02T01:57:25.591Z,18.63
2022-10-02T02:00:03.207Z,17.20
2022-10-02T02:02:35.369Z,17.00
2022-10-02T02:05:10.380Z,16.20
2022-10-02T02:07:47.380Z,14.77
2022-10-02T02:10:19.750Z,16.57
2022-10-02T02:12:51.510Z,17.50
2022-10-02T02:15:24.893Z,10.77
2022-10-02T02:17:56.063Z,15.00
2022-10-02T02:20:27.224Z,12.37
2022-10-02T02:22:56.866Z,13.67
2022-10-02T02:25:28.120Z,16.73
2022-10-02T02:27:59.014Z,16.23
2022-10-02T02:30:31.812Z,14.70
2022-10-02T02:33:03.259Z,17.33
2022-10-02T02:35:33.684Z,11.57
2022-10-02T02:38:04.584Z,16.33
2022-10-02T02:40:34.899Z,19.03
2022-10-02T02:43:06.784Z,16.47
2022-10-02T02:45:38.587Z,16.47
2022-10-02T02:48:10.387Z,14.37
2022-10-02T02:50:43.375Z,17.20
2022-10-02T02:53:13.779Z,10.93
2022-10-02T02:55:45.248Z,15.70
2022-10-02T02:58:16.041Z,14.83
2022-10-02T03:00:46.196Z,14.33
2022-10-02T03:03:15.534Z,15.23
2022-10-02T03:05:46.034Z,13.17
2022-10-02T03:08:19.164Z,12.07
2022-10-02T03:10:52.604Z,13.10
2022-10-02T03:13:30.351Z,14.30
2022-10-02T03:16:06.288Z,10.83
2022-10-02T03:18:45.061Z,12.17
2022-10-02T03:21:15.423Z,10.83
2022-10-02T03:23:50.152Z,11.90
2022-10-02T03:26:20.466Z,11.40
2022-10-02T03:28:55.975Z,9.03
2022-10-02T03:31:27.476Z,9.50
2022-10-02T03:33:56.648Z,14.57
2022-10-02T03:36:25.943Z,11.07
2022-10-02T03:39:19.973Z,10.47
2022-10-02T03:41:45.101Z,13.90
2022-10-02T03:44:13.681Z,9.37
2022-10-02T03:46:43.709Z,11.63
2022-10-02T03:49:12.463Z,11.73
2022-10-02T03:51:41.149Z,12.10
2022-10-02T03:54:15.173Z,18.47
2022-10-02T03:56:46.731Z,17.00
2022-10-02T03:59:18.029Z,18.97
2022-10-02T04:01:50.733Z,19.93
2022-10-02T04:04:23.584Z,21.70
2022-10-02T04:06:53.722Z,22.17
2022-10-02T04:09:27.223Z,18.27
2022-10-02T04:11:57.432Z,22.97
2022-10-02T04:14:30.196Z,18.67
2022-10-02T04:17:02.784Z,23.40
2022-10-02T04:19:35.598Z,23.20
2022-10-02T04:22:08.366Z,19.67
2022-10-02T04:24:42.855Z,17.57
2022-10-02T04:27:15.495Z,18.53
2022-10-02T04:29:47.079Z,17.77
2022-10-02T04:32:17.828Z,18.40
2022-10-02T04:34:46.370Z,18.70
2022-10-02T04:37:29.351Z,19.07
2022-10-02T04:40:07.276Z,19.20
2022-10-02T04:42:42.181Z,21.97
2022-10-02T04:45:19.073Z,18.27
2022-10-02T04:48:08.158Z,19.37
2022-10-02T04:50:42.478Z,25.30
2022-10-02T04:53:27.922Z,26.00
2022-10-02T04:56:11.202Z,23.90
2022-10-02T04:58:47.825Z,21.00
2022-10-02T05:01:20.548Z,24.50
2022-10-02T05:04:05.807Z,23.60
2022-10-02T05:06:41.037Z,21.73
2022-10-02T05:09:14.050Z,23.63
2022-10-02T05:11:48.304Z,25.23
2022-10-02T05:14:29.327Z,22.83
2022-10-02T05:17:01.124Z,20.57
2022-10-02T05:19:46.641Z,24.40
2022-10-02T05:22:29.952Z,23.43
2022-10-02T05:25:05.219Z,27.00
2022-10-02T05:27:44.290Z,29.10
2022-10-02T05:30:14.466Z,29.73
2022-10-02T05:32:49.309Z,24.87
2022-10-02T05:35:25.975Z,31.83
2022-10-02T05:37:59.582Z,27.07
2022-10-02T05:40:32.340Z,25.47
2022-10-02T05:43:04.603Z,30.63
2022-10-02T05:45:36.783Z,29.20
2022-10-02T05:48:08.292Z,27.77
2022-10-02T05:54:15.548Z,26.27
2022-10-02T05:56:48.871Z,24.10
2022-10-02T06:25:34.773Z,32.00
2022-10-02T06:31:24.139Z,24.50
2022-10-02T06:33:54.185Z,30.77
2022-10-02T06:36:34.149Z,30.57
2022-10-02T06:39:13.521Z,30.80
2022-10-02T06:41:47.622Z,30.47
2022-10-02T06:44:17.958Z,25.00
2022-10-02T06:46:52.501Z,24.67
2022-10-02T06:49:26.693Z,27.67
2022-10-02T06:52:01.045Z,29.57
2022-10-02T06:54:42.072Z,27.50
2022-10-02T06:57:16.245Z,26.10
2022-10-02T06:59:51.960Z,28.43
2022-10-02T07:02:28.683Z,32.00
2022-10-02T07:05:19.245Z,31.00
2022-10-02T07:07:52.389Z,27.10
2022-10-02T07:10:29.453Z,27.20
2022-10-02T07:13:18.220Z,22.33
2022-10-02T07:15:54.280Z,21.00
2022-10-02T07:18:26.842Z,25.57
2022-10-02T07:21:01.795Z,22.77
2022-10-02T07:23:36.342Z,22.90
2022-10-02T07:26:11.643Z,21.13
2022-10-02T07:28:43.569Z,21.70
2022-10-02T07:31:18.942Z,28.40
2022-10-02T07:33:52.805Z,24.67
2022-10-02T07:36:25.128Z,22.07
2022-10-02T07:39:02.219Z,19.60
2022-10-02T07:41:40.358Z,18.87
2022-10-02T07:44:15.421Z,20.83
2022-10-02T07:46:49.751Z,22.60
2022-10-02T07:49:29.174Z,18.73
2022-10-02T07:52:00.459Z,18.73
2022-10-02T07:54:35.891Z,19.37
2022-10-02T07:57:12.769Z,19.93
2022-10-02T07:59:43.429Z,21.17
2022-10-02T08:02:19.243Z,21.93
2022-10-02T08:04:48.321Z,21.60
2022-10-02T08:07:16.879Z,18.13
2022-10-02T08:09:57.165Z,21.77
2022-10-02T08:12:35.348Z,25.03
2022-10-02T08:15:04.360Z,16.33
2022-10-02T08:17:34.643Z,25.13
2022-10-02T08:20:07.945Z,17.23
2022-10-02T08:22:39.762Z,22.23
2022-10-02T08:25:11.802Z,16.30
2022-10-02T08:27:50.191Z,14.83
2022-10-02T08:30:18.783Z,18.17
2022-10-02T08:32:47.979Z,15.47
2022-10-02T08:35:17.262Z,18.00
2022-10-02T08:37:54.755Z,14.60
2022-10-02T08:40:46.816Z,15.20
2022-10-02T08:43:30.333Z,13.07
2022-10-02T08:46:21.507Z,17.57
2022-10-02T08:49:02.494Z,18.40
2022-10-02T08:51:54.708Z,12.87
2022-10-02T08:54:56.230Z,13.10
2022-10-02T08:57:41.933Z,15.90
2022-10-02T09:00:14.416Z,15.80
2022-10-02T09:03:02.782Z,12.07
2022-10-02T09:06:01.278Z,13.10
2022-10-02T09:08:53.287Z,10.90
2022-10-02T09:11:40.406Z,11.73
2022-10-02T09:14:18.164Z,9.00
2022-10-02T09:16:53.427Z,14.70
2022-10-02T09:19:41.542Z,12.60
2022-10-02T09:22:22.936Z,9.93
2022-10-02T09:25:02.940Z,11.60
2022-10-02T09:27:45.191Z,10.80
2022-10-02T09:30:28.889Z,11.20
2022-10-02T09:33:21.224Z,13.17
2022-10-02T09:36:16.837Z,14.77
2022-10-02T09:39:05.835Z,11.52
2022-10-02T09:41:52.924Z,15.15
2022-10-02T09:48:05.098Z,12.93
2022-10-02T09:50:47.917Z,15.90
2022-10-02T09:53:27.087Z,13.37
2022-10-02T09:56:08.254Z,12.73
2022-10-02T09:59:03.867Z,10.20
2022-10-02T10:01:37.808Z,12.50
2022-10-02T10:04:37.842Z,11.53
2022-10-02T10:07:41.405Z,10.32
2022-10-02T10:10:25.632Z,9.25
2022-10-02T10:13:21.361Z,11.10
2022-10-02T10:16:11.825Z,7.57
2022-10-02T10:18:58.312Z,11.18
2022-10-02T10:21:47.645Z,7.75
2022-10-02T10:24:25.407Z,7.75
2022-10-02T10:27:11.687Z,11.65
2022-10-02T10:30:02.009Z,8.93
2022-10-02T10:32:42.575Z,13.30
2022-10-02T10:35:22.157Z,8.38
2022-10-02T10:38:13.304Z,8.93
2022-10-02T10:40:55.305Z,8.52
2022-10-02T10:43:34.501Z,10.90
2022-10-02T10:46:12.262Z,6.88
2022-10-02T10:48:54.509Z,7.18
2022-10-02T10:51:30.638Z,10.35
2022-10-02T10:54:11.520Z,10.48
2022-10-02T10:56:44.556Z,8.27
2022-10-02T10:59:25.637Z,11.80
2022-10-02T11:02:02.582Z,6.97
2022-10-02T11:04:42.250Z,10.32
2022-10-02T11:07:30.977Z,10.00
2022-10-02T11:10:15.762Z,9.05
2022-10-02T11:12:56.628Z,10.40
2022-10-02T11:15:33.406Z,8.98
2022-10-02T11:18:06.468Z,8.48
2022-10-02T11:20:44.678Z,8.20
2022-10-02T11:23:25.264Z,11.75
2022-10-02T11:26:00.590Z,8.07
2022-10-02T11:28:35.693Z,7.68
2022-10-02T11:31:17.509Z,6.95
2022-10-02T11:34:10.748Z,7.55
2022-10-02T11:36:52.723Z,8.15
2022-10-02T11:39:36.175Z,7.75
2022-10-02T11:42:22.586Z,8.02
2022-10-02T11:45:02.838Z,7.18
2022-10-02T11:47:43.168Z,7.93
2022-10-02T11:50:39.853Z,7.75
2022-10-02T11:53:22.971Z,5.18
2022-10-02T11:55:57.975Z,9.30
2022-10-02T11:58:37.257Z,8.70
2022-10-02T12:01:18.981Z,8.68
2022-10-02T12:03:53.158Z,7.40
2022-10-02T12:06:30.279Z,7.40
2022-10-02T12:09:03.880Z,8.37
2022-10-02T12:11:35.396Z,9.15
2022-10-02T12:14:13.149Z,9.35
2022-10-02T12:16:49.035Z,7.95
2022-10-02T12:19:22.263Z,5.65
2022-10-02T12:22:12.955Z,12.05
2022-10-02T12:25:02.943Z,9.00
2022-10-02T12:27:42.828Z,7.30
2022-10-02T12:30:13.376Z,10.18
2022-10-02T12:32:51.142Z,6.15
2022-10-02T12:35:27.710Z,9.25
2022-10-02T12:37:58.668Z,10.25
2022-10-02T12:40:31.912Z,8.30
2022-10-02T12:43:20.136Z,8.35
2022-10-02T12:46:17.323Z,5.82
2022-10-02T12:48:55.178Z,8.35
2022-10-02T12:51:36.821Z,9.43
2022-10-02T12:54:26.373Z,7.68
2022-10-02T12:57:04.268Z,5.97
2022-10-02T12:59:36.288Z,6.07
2022-10-02T13:02:49.127Z,6.05
2022-10-02T13:05:32.204Z,6.70
2022-10-02T13:08:10.323Z,7.63
2022-10-02T13:10:43.678Z,5.40
2022-10-02T13:13:18.747Z,6.28
2022-10-02T13:15:55.151Z,5.15
2022-10-02T13:18:43.723Z,6.75
2022-10-02T13:21:18.446Z,9.07
2022-10-02T13:23:53.709Z,6.72
2022-10-02T13:26:27.488Z,5.82
2022-10-02T13:29:04.650Z,9.38
2022-10-02T13:31:41.477Z,5.72
2022-10-02T13:34:26.873Z,8.52
2022-10-02T13:37:03.480Z,9.65
2022-10-02T13:39:47.238Z,6.10
2022-10-02T13:42:25.977Z,5.93
2022-10-02T13:44:58.780Z,6.78
2022-10-02T13:47:38.550Z,10.55
2022-10-02T13:50:16.756Z,7.20
2022-10-02T13:52:49.994Z,7.38
2022-10-02T13:55:24.446Z,6.95
2022-10-02T13:58:01.290Z,7.00
2022-10-02T14:00:45.664Z,7.82
2022-10-02T14:03:20.216Z,7.05
2022-10-02T14:05:57.007Z,5.40
2022-10-02T14:08:39.929Z,8.07
2022-10-02T14:11:16.332Z,7.22
2022-10-02T14:13:52.047Z,6.47
2022-10-02T14:16:30.975Z,5.07
2022-10-02T14:19:09.367Z,8.88
2022-10-02T14:21:39.466Z,7.65
2022-10-02T14:24:20.607Z,9.10
2022-10-02T14:26:57.416Z,7.25
2022-10-02T14:29:45.720Z,6.65
2022-10-02T14:32:23.910Z,7.55
2022-10-02T14:35:09.670Z,7.57
2022-10-02T14:37:56.526Z,8.88
2022-10-02T14:40:28.404Z,9.35
2022-10-02T14:43:10.153Z,5.82
2022-10-02T14:45:53.929Z,9.02
2022-10-02T14:48:28.235Z,4.13
2022-10-02T14:51:06.976Z,6.38
2022-10-02T14:53:53.079Z,3.78
2022-10-02T14:56:52.141Z,4.72
2022-10-02T14:59:38.057Z,8.55
2022-10-02T15:02:17.064Z,7.20
2022-10-02T15:04:49.894Z,8.77
2022-10-02T15:07:21.122Z,7.72
2022-10-02T15:09:59.586Z,7.30
2022-10-02T15:12:31.127Z,7.50
2022-10-02T15:15:04.638Z,5.13
2022-10-02T15:17:54.726Z,5.68
2022-10-02T15:20:29.881Z,5.53
2022-10-02T15:22:59.325Z,6.45
2022-10-02T15:25:34.967Z,4.28
2022-10-02T15:28:31.212Z,6.30
2022-10-02T15:31:03.064Z,5.72
2022-10-02T15:33:33.633Z,6.70
2022-10-02T15:36:07.057Z,6.00
2022-10-02T15:38:46.479Z,6.97
2022-10-02T15:41:32.714Z,5.68
2022-10-02T15:44:07.159Z,6.07
2022-10-02T15:46:44.147Z,5.25
2022-10-02T15:49:14.221Z,5.65
2022-10-02T15:52:00.985Z,6.27
2022-10-02T15:54:36.108Z,4.57
2022-10-02T15:57:20.438Z,8.03
2022-10-02T15:59:59.068Z,6.45
2022-10-02T16:02:37.263Z,5.07
2022-10-02T16:05:14.320Z,5.82
2022-10-02T16:07:48.706Z,7.70
2022-10-02T16:10:21.400Z,6.90
2022-10-02T16:12:58.768Z,9.70
2022-10-02T16:15:29.121Z,8.95
2022-10-02T16:18:13.896Z,7.65
2022-10-02T16:20:53.110Z,11.35
2022-10-02T16:23:26.699Z,7.45
2022-10-02T16:26:03.713Z,7.43
2022-10-02T16:28:44.719Z,6.90
2022-10-02T16:31:23.215Z,7.63
2022-10-02T16:33:57.777Z,8.50
2022-10-02T16:36:31.987Z,11.37
2022-10-02T16:39:06.153Z,7.75
2022-10-02T16:41:38.539Z,9.17
2022-10-02T16:44:25.227Z,7.63
2022-10-02T16:46:55.679Z,6.63
2022-10-02T16:49:27.224Z,6.07
2022-10-02T16:51:59.658Z,7.90
2022-10-02T16:54:37.085Z,7.57
2022-10-02T16:57:09.148Z,10.80
2022-10-02T16:59:43.544Z,6.47
2022-10-02T17:02:18.862Z,9.13
2022-10-02T17:04:54.262Z,7.00
2022-10-02T17:07:26.879Z,6.43
2022-10-02T17:09:58.253Z,11.03
2022-10-02T17:12:29.510Z,9.20
2022-10-02T17:15:00.640Z,8.40
2022-10-02T17:17:44.156Z,9.83
2022-10-02T17:20:17.780Z,11.20
2022-10-02T17:22:53.799Z,10.60
2022-10-02T17:25:29.629Z,12.83
2022-10-02T17:28:00.730Z,7.40
2022-10-02T17:30:30.739Z,8.40
2022-10-02T17:33:07.916Z,9.67
2022-10-02T17:35:41.156Z,7.97
2022-10-02T17:38:32.754Z,9.83
2022-10-02T17:41:06.487Z,13.47
2022-10-02T17:43:39.891Z,7.63
2022-10-02T17:46:25.732Z,8.40
2022-10-02T17:48:57.483Z,12.50
2022-10-02T17:54:47.942Z,12.73
2022-10-02T17:57:21.071Z,10.57
2022-10-02T18:00:01.460Z,9.23
2022-10-02T18:02:43.320Z,7.27
2022-10-02T18:05:18.803Z,9.27
2022-10-02T18:07:56.927Z,8.13
2022-10-02T18:10:31.125Z,8.13
2022-10-02T18:13:06.541Z,10.83
2022-10-02T18:15:50.795Z,9.43
2022-10-02T18:18:24.257Z,11.80
2022-10-02T18:20:57.395Z,11.70
2022-10-02T18:23:36.067Z,8.10
2022-10-02T18:26:18.045Z,7.47
2022-10-02T18:28:55.619Z,9.67
2022-10-02T18:31:54.003Z,5.90
2022-10-02T18:34:33.861Z,8.53
2022-10-02T18:37:12.017Z,7.97
2022-10-02T18:39:42.373Z,11.23
2022-10-02T18:42:29.944Z,8.07
2022-10-02T18:45:05.528Z,7.70
2022-10-02T18:47:40.136Z,13.17
2022-10-02T18:50:20.533Z,8.13
2022-10-02T18:53:00.529Z,9.63
2022-10-02T18:55:39.063Z,8.50
2022-10-02T18:58:12.204Z,6.77
2022-10-02T19:00:53.701Z,9.87
2022-10-02T19:03:29.540Z,7.33
2022-10-02T19:06:00.545Z,9.13
2022-10-02T19:08:32.701Z,9.63
2022-10-02T19:11:01.154Z,11.07
2022-10-02T19:13:31.398Z,10.30
2022-10-02T19:16:01.345Z,9.57
2022-10-02T19:18:30.877Z,19.20
2022-10-02T19:21:00.926Z,9.73
2022-10-02T19:23:36.514Z,11.20
2022-10-02T19:26:06.972Z,13.60
2022-10-02T19:28:39.459Z,12.90
2022-10-02T19:31:12.310Z,12.50
2022-10-02T19:33:45.255Z,9.33
2022-10-02T19:36:18.355Z,10.73
2022-10-02T19:38:54.538Z,9.90
2022-10-02T19:41:23.752Z,9.07
2022-10-02T19:43:58.434Z,11.97
2022-10-02T19:46:32.662Z,14.10
2022-10-02T19:49:02.388Z,12.93
2022-10-02T19:51:30.966Z,8.00
2022-10-02T19:54:02.196Z,14.83
2022-10-02T19:56:32.688Z,9.20
2022-10-02T19:59:03.935Z,11.60
2022-10-02T20:01:35.144Z,9.20
2022-10-02T20:04:07.712Z,13.17
2022-10-02T20:06:39.822Z,12.50
2022-10-02T20:09:14.556Z,8.93
2022-10-02T20:11:44.926Z,10.73
2022-10-02T20:14:16.779Z,11.43
2022-10-02T20:17:02.942Z,10.80
2022-10-02T20:19:34.455Z,21.83
2022-10-02T20:22:06.241Z,9.00
2022-10-02T20:24:37.568Z,10.00
2022-10-02T20:27:08.950Z,8.03
2022-10-02T20:29:46.928Z,9.60
2022-10-02T20:32:17.822Z,9.60
2022-10-02T20:34:50.059Z,12.60
2022-10-02T20:37:20.517Z,12.40
2022-10-02T20:39:50.645Z,18.27
2022-10-02T20:42:23.157Z,11.63
2022-10-02T20:44:53.550Z,9.33
2022-10-02T20:47:36.723Z,11.13
2022-10-02T20:50:24.085Z,11.77
2022-10-02T20:53:12.159Z,15.47
2022-10-02T20:55:44.239Z,13.47
2022-10-02T20:58:25.225Z,11.53
2022-10-02T21:01:07.358Z,8.23
2022-10-02T21:03:47.619Z,9.00
2022-10-02T21:06:26.578Z,13.13
2022-10-02T21:09:18.346Z,10.53
2022-10-02T21:12:02.072Z,8.37
2022-10-02T21:14:57.304Z,8.77
2022-10-02T21:17:44.386Z,12.90
2022-10-02T21:20:51.727Z,12.37
2022-10-02T21:23:33.673Z,11.10
2022-10-02T21:26:12.826Z,12.00
2022-10-02T21:28:56.565Z,11.97
2022-10-02T21:31:42.609Z,15.00
2022-10-02T21:34:15.700Z,13.10
2022-10-02T21:36:48.590Z,12.53
2022-10-02T21:39:31.743Z,9.83
2022-10-02T21:42:17.645Z,12.20
2022-10-02T21:45:00.414Z,9.07
2022-10-02T21:47:49.603Z,10.70
2022-10-02T21:50:32.369Z,11.13
2022-10-02T21:53:14.580Z,9.57
2022-10-02T21:55:58.309Z,10.33
2022-10-02T21:58:45.200Z,10.37
2022-10-02T22:01:25.897Z,11.63
2022-10-02T22:04:10.618Z,14.03
2022-10-02T22:06:43.539Z,13.10
2022-10-02T22:09:27.008Z,12.17
2022-10-02T22:12:05.054Z,9.53
2022-10-02T22:14:36.819Z,12.90
2022-10-02T22:17:09.871Z,10.03
2022-10-02T22:19:48.158Z,9.77
2022-10-02T22:22:21.866Z,13.17
2022-10-02T22:24:58.899Z,9.40
2022-10-02T22:27:41.097Z,12.60
2022-10-02T22:30:21.036Z,12.73
2022-10-02T22:33:11.303Z,14.03
2022-10-02T22:35:57.337Z,10.30
2022-10-02T22:38:27.291Z,11.17
2022-10-02T22:40:57.973Z,11.63
2022-10-02T22:43:30.284Z,13.83
2022-10-02T22:46:02.033Z,15.67
2022-10-02T22:48:35.890Z,10.37
2022-10-02T22:51:06.531Z,10.70
2022-10-02T22:53:37.092Z,11.27
2022-10-02T22:56:15.793Z,14.83
2022-10-02T22:58:47.219Z,10.20
2022-10-02T23:01:20.993Z,8.00
2022-10-02T23:03:51.621Z,14.53
2022-10-02T23:06:25.405Z,9.60
2022-10-02T23:08:58.413Z,15.40
2022-10-02T23:11:28.646Z,13.37
2022-10-02T23:14:00.390Z,13.17
2022-10-02T23:16:35.198Z,12.93
2022-10-02T23:19:07.077Z,10.67
2022-10-02T23:21:44.578Z,9.37
2022-10-02T23:24:19.790Z,9.47
2022-10-02T23:26:50.046Z,10.73
2022-10-02T23:29:26.858Z,12.53
2022-10-02T23:32:00.387Z,12.77
2022-10-02T23:34:41.572Z,9.73
2022-10-02T23:37:15.886Z,13.30
2022-10-02T23:39:47.112Z,12.33
2022-10-02T23:42:16.759Z,15.80
2022-10-02T23:44:49.652Z,11.03
2022-10-02T23:47:27.069Z,11.20
2022-10-02T23:49:56.107Z,15.03
2022-10-02T23:52:38.011Z,12.33
2022-10-02T23:55:24.333Z,16.30
2022-10-02T23:57:58.908Z,10.60
